Main page
METAR-TAF:

METAR-TAF

Airports :

Paros National Airport

Paros, Greece

latitude: 37-01-15N, longitude: 025-06-46E, elevation: 38 m

Current weather observation

The report was made 20 minutes ago, at 01:50 UTC
Wind 15 kt from the South/Southeast
Temperature 15°C
Humidity 88%
Pressure 1011 hPa

METAR: LGPA 270150Z AUTO 15015KT //// // ////// 15/13 Q1011 RE//

Time: 04:10 (02:10 UTC)


TAF: missing

Weather observations and forecasts of more than 4000 airports (METAR and TAF reports).

The available stations are represented by yellow and red dots on the map.

Hover mouse over dot to see the name of the station.

Then click to see weather observations and forecasts.

To change the map : click on the green buttons with a black cross to zoom in, on the green button with a dash to zoom out, or on the green arrows for adjacent maps.


METAR-TAF: